Ty Lotus — DSNU7 — position and weather

sailwx.info

Track history (hours):
 
Tides and Currents Weather Stations Pressure Air Temp Water Temp Dewpoint Dewpoint Depression Visibility Wind Speed Wind Dir Waves Ship Positions

Ty Lotus

Last reported at 2014-Jul-22 14:11 UTC. Time now 2014-Jul-23 05:15 UTC.
Position N 34°54' E 139°23'.

Length 82 m; draft 4.5 m.

Type: Cargo ship. MMSI: 440324000.

Date/timePositionNaut miles runAvg speedWind from/ knotsBaromVisibWave heightAir tempDewpointWater temp
2014-Jul-22 14:11N 34°54' E 139°23'5 7.7
2014-Jul-22 13:34N 34°57' E 139°28'8 8.0
2014-Jul-22 12:34N 35°02' E 139°35'10 9.6
2014-Jul-22 11:33N 35°09' E 139°43'9 9.1
2014-Jul-22 10:34N 35°18' E 139°44'10 9.6
2014-Jul-22 09:33N 35°27' E 139°43'1 1.3
2014-Jul-22 08:32N 35°28' E 139°42'0 0.0
2014-Jul-22 07:32N 35°28' E 139°42'0 0.0
2014-Jul-22 06:32N 35°28' E 139°42'0 0.0
2014-Jul-22 05:32N 35°28' E 139°42'0 0.0
2014-Jul-22 04:29N 35°28' E 139°42'0 0.0
2014-Jul-22 03:32N 35°28' E 139°42'0 0.0
2014-Jul-22 02:32N 35°28' E 139°42'0 0.0
2014-Jul-22 01:32N 35°28' E 139°42'0 0.0
2014-Jul-22 00:32N 35°28' E 139°42'0 0.0
2014-Jul-21 23:32N 35°28' E 139°42'0 0.1
2014-Jul-21 22:33N 35°28' E 139°42'2 2.0
2014-Jul-21 21:33N 35°27' E 139°43'0 0.0
2014-Jul-21 20:33N 35°27' E 139°43'0 0.1
2014-Jul-21 20:18N 35°27' E 139°43'0 0.0
2014-Jul-21 19:33N 35°27' E 139°43'0 0.0
2014-Jul-21 18:33N 35°27' E 139°43'0 0.0
2014-Jul-21 17:33N 35°27' E 139°43'0 0.0
2014-Jul-21 16:33N 35°27' E 139°43'0 0.0
2014-Jul-21 15:33N 35°27' E 139°43'0 0.0
2014-Jul-21 14:33N 35°27' E 139°43'0 0.0
2014-Jul-21 13:33N 35°27' E 139°43'0 0.0
2014-Jul-21 12:33N 35°27' E 139°43'0 0.0
2014-Jul-21 11:33N 35°27' E 139°43'0 0.0
2014-Jul-21 10:33N 35°27' E 139°43'0 0.0
2014-Jul-21 09:33N 35°27' E 139°43'0 0.0
2014-Jul-21 08:30N 35°27' E 139°43'0 0.0
2014-Jul-21 07:30N 35°27' E 139°43'0 0.0
2014-Jul-21 06:33N 35°27' E 139°43'0 0.1
2014-Jul-21 05:33N 35°27' E 139°43'0 0.0
2014-Jul-21 04:33N 35°27' E 139°43'0 0.0
2014-Jul-21 03:33N 35°27' E 139°43'0 0.0
2014-Jul-21 02:33N 35°27' E 139°43'0 0.1
2014-Jul-21 01:33N 35°27' E 139°43'0 0.0
2014-Jul-21 00:28N 35°27' E 139°43'0 0.0
2014-Jul-20 23:32N 35°27' E 139°43'0 0.0
2014-Jul-20 22:32N 35°27' E 139°43'0 0.1
2014-Jul-20 21:32N 35°27' E 139°43'0 0.0
2014-Jul-20 20:32N 35°27' E 139°43'0 0.0
2014-Jul-20 19:32N 35°27' E 139°43'0 0.0
2014-Jul-20 18:29N 35°27' E 139°43'0 0.0
2014-Jul-20 17:32N 35°27' E 139°43'0 0.0
2014-Jul-20 16:32N 35°27' E 139°43'0 0.0
2014-Jul-20 15:32N 35°27' E 139°43'5 4.8
2014-Jul-20 14:34N 35°22' E 139°45'1010.3
2014-Jul-20 13:33N 35°12' E 139°47'1111.0
2014-Jul-20 12:33N 35°02' E 139°41'1412.9
2014-Jul-20 11:29N 34°56' E 139°26'227 9.9
2014-Jul-19 12:30N 34°00' E 134°59'1111.6
2014-Jul-19 11:33N 34°11' E 134°59'1211.4
2014-Jul-19 10:30N 34°22' E 135°04'1111.4
2014-Jul-19 09:33N 34°30' E 135°13'1111.4
2014-Jul-19 08:33N 34°38' E 135°23'2 2.3
2014-Jul-19 07:30N 34°39' E 135°26'0 0.0
2014-Jul-19 06:30N 34°39' E 135°26'0 0.0
2014-Jul-19 05:30N 34°39' E 135°26'0 0.0
2014-Jul-19 04:30N 34°39' E 135°26'0 0.0
2014-Jul-19 03:30N 34°39' E 135°26'0 0.0
2014-Jul-19 02:30N 34°39' E 135°26'0 0.0
2014-Jul-19 01:30N 34°39' E 135°26'0 0.0
2014-Jul-19 00:18N 34°39' E 135°26'0 0.0
2014-Jul-18 23:30N 34°39' E 135°26'0 0.0
2014-Jul-18 22:05N 34°39' E 135°26'1 2.3
2014-Jul-18 21:33N 34°39' E 135°25'2 2.2
2014-Jul-18 20:31N 34°37' E 135°23'0 0.0
2014-Jul-18 19:31N 34°37' E 135°23'0 0.0
2014-Jul-18 18:13N 34°37' E 135°23'0 0.1
2014-Jul-18 17:25N 34°37' E 135°23'0 0.0
2014-Jul-18 16:25N 34°37' E 135°23'0 0.0
2014-Jul-18 15:31N 34°37' E 135°23'0 0.0
2014-Jul-18 14:19N 34°37' E 135°23'0 0.0
2014-Jul-18 13:25N 34°37' E 135°23'0 0.0
2014-Jul-18 12:31N 34°37' E 135°23'3 3.0
2014-Jul-18 11:32N 34°36' E 135°19'1111.5
2014-Jul-18 10:33N 34°35' E 135°06'1411.9
2014-Jul-18 09:23N 34°33' E 134°49'  
Track history (hours):
 
Tides and Currents Weather Stations Pressure Air Temp Water Temp Dewpoint Dewpoint Depression Visibility Wind Speed Wind Dir Waves Ship Positions

Ty Lotus

Last reported at 2014-Jul-22 14:11 UTC. Time now 2014-Jul-23 05:15 UTC.
Position N 34°54' E 139°23'.

Length 82 m; draft 4.5 m.

Type: Cargo ship. MMSI: 440324000.

Date/timePositionNaut miles runAvg speedWind from/ knotsBaromVisibWave heightAir tempDewpointWater temp
2014-Jul-22 14:11N 34°54' E 139°23'5 7.7
2014-Jul-22 13:34N 34°57' E 139°28'8 8.0
2014-Jul-22 12:34N 35°02' E 139°35'10 9.6
2014-Jul-22 11:33N 35°09' E 139°43'9 9.1
2014-Jul-22 10:34N 35°18' E 139°44'10 9.6
2014-Jul-22 09:33N 35°27' E 139°43'1 1.3
2014-Jul-22 08:32N 35°28' E 139°42'0 0.0
2014-Jul-22 07:32N 35°28' E 139°42'0 0.0
2014-Jul-22 06:32N 35°28' E 139°42'0 0.0
2014-Jul-22 05:32N 35°28' E 139°42'0 0.0
2014-Jul-22 04:29N 35°28' E 139°42'0 0.0
2014-Jul-22 03:32N 35°28' E 139°42'0 0.0
2014-Jul-22 02:32N 35°28' E 139°42'0 0.0
2014-Jul-22 01:32N 35°28' E 139°42'0 0.0
2014-Jul-22 00:32N 35°28' E 139°42'0 0.0
2014-Jul-21 23:32N 35°28' E 139°42'0 0.1
2014-Jul-21 22:33N 35°28' E 139°42'2 2.0
2014-Jul-21 21:33N 35°27' E 139°43'0 0.0
2014-Jul-21 20:33N 35°27' E 139°43'0 0.1
2014-Jul-21 20:18N 35°27' E 139°43'0 0.0
2014-Jul-21 19:33N 35°27' E 139°43'0 0.0
2014-Jul-21 18:33N 35°27' E 139°43'0 0.0
2014-Jul-21 17:33N 35°27' E 139°43'0 0.0
2014-Jul-21 16:33N 35°27' E 139°43'0 0.0
2014-Jul-21 15:33N 35°27' E 139°43'0 0.0
2014-Jul-21 14:33N 35°27' E 139°43'0 0.0
2014-Jul-21 13:33N 35°27' E 139°43'0 0.0
2014-Jul-21 12:33N 35°27' E 139°43'0 0.0
2014-Jul-21 11:33N 35°27' E 139°43'0 0.0
2014-Jul-21 10:33N 35°27' E 139°43'0 0.0
2014-Jul-21 09:33N 35°27' E 139°43'0 0.0
2014-Jul-21 08:30N 35°27' E 139°43'0 0.0
2014-Jul-21 07:30N 35°27' E 139°43'0 0.0
2014-Jul-21 06:33N 35°27' E 139°43'0 0.1
2014-Jul-21 05:33N 35°27' E 139°43'0 0.0
2014-Jul-21 04:33N 35°27' E 139°43'0 0.0
2014-Jul-21 03:33N 35°27' E 139°43'0 0.0
2014-Jul-21 02:33N 35°27' E 139°43'0 0.1
2014-Jul-21 01:33N 35°27' E 139°43'0 0.0
2014-Jul-21 00:28N 35°27' E 139°43'0 0.0
2014-Jul-20 23:32N 35°27' E 139°43'0 0.0
2014-Jul-20 22:32N 35°27' E 139°43'0 0.1
2014-Jul-20 21:32N 35°27' E 139°43'0 0.0
2014-Jul-20 20:32N 35°27' E 139°43'0 0.0
2014-Jul-20 19:32N 35°27' E 139°43'0 0.0
2014-Jul-20 18:29N 35°27' E 139°43'0 0.0
2014-Jul-20 17:32N 35°27' E 139°43'0 0.0
2014-Jul-20 16:32N 35°27' E 139°43'0 0.0
2014-Jul-20 15:32N 35°27' E 139°43'5 4.8
2014-Jul-20 14:34N 35°22' E 139°45'1010.3
2014-Jul-20 13:33N 35°12' E 139°47'1111.0
2014-Jul-20 12:33N 35°02' E 139°41'1412.9
2014-Jul-20 11:29N 34°56' E 139°26'227 9.9
2014-Jul-19 12:30N 34°00' E 134°59'1111.6
2014-Jul-19 11:33N 34°11' E 134°59'1211.4
2014-Jul-19 10:30N 34°22' E 135°04'1111.4
2014-Jul-19 09:33N 34°30' E 135°13'1111.4
2014-Jul-19 08:33N 34°38' E 135°23'2 2.3
2014-Jul-19 07:30N 34°39' E 135°26'0 0.0
2014-Jul-19 06:30N 34°39' E 135°26'0 0.0
2014-Jul-19 05:30N 34°39' E 135°26'0 0.0
2014-Jul-19 04:30N 34°39' E 135°26'0 0.0
2014-Jul-19 03:30N 34°39' E 135°26'0 0.0
2014-Jul-19 02:30N 34°39' E 135°26'0 0.0
2014-Jul-19 01:30N 34°39' E 135°26'0 0.0
2014-Jul-19 00:18N 34°39' E 135°26'0 0.0
2014-Jul-18 23:30N 34°39' E 135°26'0 0.0
2014-Jul-18 22:05N 34°39' E 135°26'1 2.3
2014-Jul-18 21:33N 34°39' E 135°25'2 2.2
2014-Jul-18 20:31N 34°37' E 135°23'0 0.0
2014-Jul-18 19:31N 34°37' E 135°23'0 0.0
2014-Jul-18 18:13N 34°37' E 135°23'0 0.1
2014-Jul-18 17:25N 34°37' E 135°23'0 0.0
2014-Jul-18 16:25N 34°37' E 135°23'0 0.0
2014-Jul-18 15:31N 34°37' E 135°23'0 0.0
2014-Jul-18 14:19N 34°37' E 135°23'0 0.0
2014-Jul-18 13:25N 34°37' E 135°23'0 0.0
2014-Jul-18 12:31N 34°37' E 135°23'3 3.0
2014-Jul-18 11:32N 34°36' E 135°19'1111.5
2014-Jul-18 10:33N 34°35' E 135°06'1411.9
2014-Jul-18 09:23N 34°33' E 134°49'  

Dump ship's entire track history